Time;durP1;ratioP1;P1;durP2;ratioP2;P2;SDS_P1;SDS_P2;PMS_P1;PMS_P2;Temp;Humidity;BMP_temperature;BMP_pressure;BME280_temperature;BME280_humidity;BME280_pressure;Samples;Min_cycle;Max_cycle;Signal;HPM_P1;HPM_P2
2021/03/25 00:01:27;;;;;;;5.90;2.80;;;;;;;-1.05;83.86;100717.38;5031003;28;20179;-75
2021/03/25 00:03:54;;;;;;;5.53;3.33;;;;;;;-0.73;84.13;100774.19;5031048;28;20498;-74
2021/03/25 00:06:24;;;;;;;6.07;3.30;;;;;;;-0.82;84.03;100759.94;5031512;28;20030;-76
2021/03/25 00:08:49;;;;;;;5.70;2.97;;;;;;;-0.99;84.66;100749.97;5030482;28;20392;-75
2021/03/25 00:11:16;;;;;;;4.30;2.80;;;;;;;-0.77;84.00;100762.88;5042932;28;20040;-81
2021/03/25 00:13:42;;;;;;;4.37;2.80;;;;;;;-0.61;83.72;100759.13;5045956;28;20503;-78
2021/03/25 00:16:08;;;;;;;5.23;3.20;;;;;;;-0.61;82.87;100728.69;5035317;28;20061;-73
2021/03/25 00:18:34;;;;;;;5.37;3.10;;;;;;;-0.46;82.06;100751.94;5037512;28;20485;-73
2021/03/25 00:21:00;;;;;;;5.07;3.33;;;;;;;-0.34;81.92;100746.28;5035259;28;20033;-77
2021/03/25 00:23:25;;;;;;;5.70;3.10;;;;;;;-0.47;82.38;100757.78;5035020;28;20029;-72
2021/03/25 00:25:51;;;;;;;5.97;3.27;;;;;;;-0.38;82.04;100754.38;5034969;28;20155;-71
2021/03/25 00:28:18;;;;;;;6.43;2.93;;;;;;;-0.38;81.99;100753.50;5034807;28;20148;-77
2021/03/25 00:30:44;;;;;;;5.70;3.47;;;;;;;-0.41;81.65;100738.00;5035136;28;20036;-78
2021/03/25 00:33:13;;;;;;;7.73;5.53;;;;;;;-0.28;81.68;100767.88;5032486;28;20018;-77
2021/03/25 00:35:39;;;;;;;6.03;3.50;;;;;;;-0.71;82.85;100757.44;5033236;28;20025;-76
2021/03/25 00:38:07;;;;;;;5.60;3.73;;;;;;;-0.87;83.62;100758.66;5034998;28;20472;-74
2021/03/25 00:40:32;;;;;;;5.83;3.50;;;;;;;-1.11;84.68;100770.06;5035050;28;20033;-75
2021/03/25 00:42:59;;;;;;;6.33;3.33;;;;;;;-1.21;84.61;100758.25;5035830;28;20025;-76
2021/03/25 00:45:30;;;;;;;6.80;3.63;;;;;;;-1.22;85.62;100747.94;5033750;28;20060;-81
2021/03/25 00:47:56;;;;;;;4.33;3.20;;;;;;;-1.03;84.91;100755.56;5013778;28;20488;-76
2021/03/25 00:50:31;;;;;;;4.53;2.83;;;;;;;-1.06;84.68;100735.00;5012396;28;20542;-77
2021/03/25 00:52:58;;;;;;;5.60;3.20;;;;;;;-0.85;83.60;100748.66;4995981;28;20072;-74
2021/03/25 00:55:24;;;;;;;4.43;2.80;;;;;;;-0.90;83.21;100730.50;5011632;28;20030;-75
2021/03/25 00:57:49;;;;;;;5.27;3.10;;;;;;;-0.94;83.58;100732.66;4994785;28;20038;-76
2021/03/25 01:00:24;;;;;;;4.30;3.00;;;;;;;-0.80;83.27;100739.78;4997210;28;20204;-76
2021/03/25 01:02:50;;;;;;;4.60;3.03;;;;;;;-0.71;82.46;100737.16;5014153;28;20052;-80
2021/03/25 01:05:17;;;;;;;4.63;2.90;;;;;;;-0.74;81.75;100740.31;5012174;28;20046;-77
2021/03/25 01:07:43;;;;;;;3.60;2.50;;;;;;;-0.74;80.85;100731.84;5012733;28;20045;-78
2021/03/25 01:10:16;;;;;;;6.93;3.30;;;;;;;-0.99;81.04;100689.16;5014053;28;20033;-80
2021/03/25 01:12:41;;;;;;;5.07;3.07;;;;;;;-0.61;80.91;100738.84;5014147;28;20038;-81
2021/03/25 01:15:08;;;;;;;5.40;3.90;;;;;;;-0.43;80.39;100745.50;5030631;28;20041;-81
2021/03/25 01:17:37;;;;;;;4.70;3.10;;;;;;;-0.37;80.20;100740.06;5030756;28;20116;-75
2021/03/25 01:20:10;;;;;;;4.75;2.53;;;;;;;-0.32;79.40;100736.25;5051673;28;20041;-76
2021/03/25 01:22:35;;;;;;;3.70;2.70;;;;;;;-0.76;80.23;100695.31;5064042;28;20064;-79
2021/03/25 01:25:01;;;;;;;5.23;3.23;;;;;;;-0.54;80.37;100736.97;5035874;28;20079;-76
2021/03/25 01:27:26;;;;;;;3.93;2.80;;;;;;;-0.53;79.84;100727.72;5033117;28;20017;-74
2021/03/25 01:29:52;;;;;;;4.90;2.83;;;;;;;-0.71;80.30;100734.63;5031384;28;20100;-77
2021/03/25 01:32:17;;;;;;;5.77;2.73;;;;;;;-0.68;80.40;100732.38;5034477;28;20036;-78
2021/03/25 01:34:43;;;;;;;4.17;2.73;;;;;;;-0.67;80.33;100734.16;5033794;28;20025;-76
2021/03/25 01:37:08;;;;;;;5.00;3.03;;;;;;;-0.69;80.31;100731.47;5035432;28;20033;-79
2021/03/25 01:39:35;;;;;;;5.07;3.60;;;;;;;-0.94;80.68;100697.19;5033779;28;20021;-75
2021/03/25 01:42:00;;;;;;;5.57;3.70;;;;;;;-0.64;80.28;100734.41;5033156;28;20037;-76
2021/03/25 01:44:44;;;;;;;5.27;3.20;;;;;;;-0.51;80.07;100728.75;5032705;28;20040;-79
2021/03/25 01:47:10;;;;;;;4.83;3.20;;;;;;;-0.45;79.81;100720.75;5032406;28;20029;-77
2021/03/25 01:49:35;;;;;;;5.63;3.20;;;;;;;-0.62;78.72;100666.97;5035293;28;20057;-80
2021/03/25 01:52:22;;;;;;;6.53;3.67;;;;;;;-0.26;78.58;100729.16;5033828;28;20079;-80
2021/03/25 01:54:56;;;;;;;6.37;3.07;;;;;;;-0.12;78.04;100730.31;5033051;28;20033;-77
2021/03/25 01:57:31;;;;;;;5.27;3.33;;;;;;;-0.04;77.73;100731.88;5031441;28;20034;-78
2021/03/25 02:00:09;;;;;;;5.47;3.33;;;;;;;0.05;77.63;100741.91;5031952;28;20029;-86
2021/03/25 02:02:48;;;;;;;6.17;3.27;;;;;;;-0.03;77.00;100720.94;5030628;28;20025;-85
2021/03/25 02:05:47;;;;;;;6.07;3.75;;;;;;;0.08;77.07;100743.78;5032766;28;20046;-79
2021/03/25 02:08:44;;;;;;;8.80;4.07;;;;;;;0.12;76.76;100743.28;5049540;28;20029;-78
2021/03/25 02:11:39;;;;;;;13.27;8.83;;;;;;;0.12;76.09;100746.69;5047376;28;20566;-77
2021/03/25 02:14:28;;;;;;;5.87;3.67;;;;;;;-0.45;75.69;100720.75;5046120;28;20037;-82
2021/03/25 02:17:06;;;;;;;;;;;;;;;-0.53;76.92;100756.50;5047100;28;20029;-80
2021/03/25 02:19:35;;;;;;;5.90;3.20;;;;;;;-0.89;78.30;100739.00;5049381;28;19919;-80
2021/03/25 02:22:08;;;;;;;4.77;2.97;;;;;;;-0.92;78.08;100739.63;5033294;28;20025;-78
2021/03/25 02:24:49;;;;;;;4.17;2.93;;;;;;;-0.92;78.71;100762.44;5030246;28;20501;-78
2021/03/25 02:27:42;;;;;;;5.23;3.27;;;;;;;-1.02;79.37;100758.22;5029067;28;20029;-80
2021/03/25 02:30:11;;;;;;;5.77;2.90;;;;;;;-1.21;80.31;100753.19;5029631;28;20048;-79
2021/03/25 02:32:51;;;;;;;6.43;2.72;;;;;;;-1.61;81.19;100724.28;5029273;28;20492;-76
2021/03/25 02:35:22;;;;;;;4.83;3.30;;;;;;;-1.52;82.07;100750.44;5029693;28;20036;-79
2021/03/25 02:37:52;;;;;;;4.43;3.17;;;;;;;-1.86;82.19;100703.50;5012268;28;20067;-78
2021/03/25 02:40:30;;;;;;;5.40;3.37;;;;;;;-1.65;82.28;100739.97;5012141;28;20466;-79
2021/03/25 02:43:03;;;;;;;5.03;3.07;;;;;;;-1.50;82.23;100748.03;5026522;28;20080;-78
2021/03/25 02:45:32;;;;;;;6.13;4.13;;;;;;;-1.68;81.66;100706.78;5030721;28;20038;-80
2021/03/25 02:48:03;;;;;;;6.85;4.18;;;;;;;-1.39;81.95;100754.06;5030091;28;20037;-77
2021/03/25 02:50:40;;;;;;;5.83;3.67;;;;;;;-1.67;81.50;100691.72;5029537;28;20064;-73
2021/03/25 02:53:42;;;;;;;7.70;4.63;;;;;;;-1.31;81.22;100726.13;5028925;28;20029;-73
2021/03/25 02:56:24;;;;;;;6.57;4.47;;;;;;;-1.60;81.67;100689.75;4975156;28;20094;-78
2021/03/25 02:58:56;;;;;;;6.47;4.27;;;;;;;-1.11;81.53;100776.78;4983731;28;20038;-76
2021/03/25 03:01:23;;;;;;;8.00;4.97;;;;;;;-1.02;81.56;100773.41;4989944;28;20125;-77
2021/03/25 03:04:20;;;;;;;7.93;4.43;;;;;;;-0.83;80.71;100772.50;4972842;28;20047;-76
2021/03/25 03:06:52;;;;;;;8.07;5.13;;;;;;;-0.84;80.68;100769.03;4972274;28;20056;-74
2021/03/25 03:09:39;;;;;;;13.37;11.37;;;;;;;-0.72;80.66;100781.03;4972810;28;20530;-73
2021/03/25 03:12:14;;;;;;;9.50;5.20;;;;;;;-0.69;80.50;100772.03;4963226;28;20038;-76
2021/03/25 03:14:47;;;;;;;9.30;5.63;;;;;;;-0.61;79.69;100790.47;4985264;28;20452;-71
2021/03/25 03:17:18;;;;;;;8.57;6.20;;;;;;;-0.69;80.72;100783.81;4973195;28;20125;-72
2021/03/25 03:20:07;;;;;;;10.23;5.97;;;;;;;-0.68;80.53;100785.63;4989419;28;20046;-72
2021/03/25 03:22:35;;;;;;;6.75;4.90;;;;;;;-0.69;80.43;100791.44;4972783;28;20615;-71
2021/03/25 03:25:08;;;;;;;10.97;6.03;;;;;;;-0.77;80.57;100790.78;4976640;28;20117;-74
2021/03/25 03:27:44;;;;;;;10.20;6.90;;;;;;;-0.72;80.64;100789.53;4968876;28;20066;-76
2021/03/25 03:30:33;;;;;;;9.63;6.60;;;;;;;-0.74;80.44;100785.97;4983187;28;20494;-74
2021/03/25 03:33:07;;;;;;;16.80;7.75;;;;;;;-0.81;81.07;100798.84;5005931;28;20117;-77
2021/03/25 03:35:43;;;;;;;7.83;5.90;;;;;;;-0.84;80.94;100808.72;5005387;28;20038;-74
2021/03/25 03:38:14;;;;;;;10.97;5.60;;;;;;;-0.80;81.48;100800.63;5011613;28;20079;-77
2021/03/25 03:40:43;;;;;;;9.20;5.80;;;;;;;-0.72;81.48;100804.72;5009902;28;20496;-80
2021/03/25 03:43:14;;;;;;;7.93;5.27;;;;;;;-0.58;80.89;100803.41;5020478;28;20064;-75
2021/03/25 03:45:45;;;;;;;9.30;5.20;;;;;;;-0.73;81.18;100797.00;5032228;28;20055;-75
2021/03/25 03:48:20;;;;;;;7.10;4.50;;;;;;;-0.71;81.28;100808.16;5049115;28;20025;-74
2021/03/25 03:50:53;;;;;;;8.00;4.53;;;;;;;-0.77;81.81;100816.13;5053484;28;20083;-79
2021/03/25 03:53:19;;;;;;;7.77;5.23;;;;;;;-0.74;81.89;100802.81;5054625;28;20418;-73
2021/03/25 03:55:44;;;;;;;7.23;4.80;;;;;;;-0.58;81.72;100799.97;5054613;28;20025;-77
2021/03/25 03:58:27;;;;;;;7.93;5.40;;;;;;;-0.43;80.36;100806.38;5054104;28;20479;-75
2021/03/25 04:01:01;;;;;;;6.37;4.70;;;;;;;-0.33;80.34;100810.59;5045725;28;20087;-74
2021/03/25 04:03:27;;;;;;;8.10;5.40;;;;;;;-0.25;79.93;100811.25;5050093;28;20521;-75
2021/03/25 04:06:05;;;;;;;9.40;6.07;;;;;;;-0.57;79.50;100758.66;5053993;28;20060;-75
2021/03/25 04:08:39;;;;;;;15.20;7.80;;;;;;;-0.22;79.89;100806.44;5054232;28;20078;-74
2021/03/25 04:11:16;;;;;;;12.13;7.40;;;;;;;-0.42;79.22;100754.88;5054706;28;20029;-74
2021/03/25 04:14:10;;;;;;;12.63;8.27;;;;;;;0.05;79.05;100822.22;5053891;28;20487;-74
2021/03/25 04:16:37;;;;;;;14.33;8.23;;;;;;;-0.09;79.54;100813.44;4976392;28;20512;-74
2021/03/25 04:19:13;;;;;;;11.97;6.70;;;;;;;-0.05;79.16;100824.00;4992054;28;20046;-75
2021/03/25 04:21:45;;;;;;;8.77;5.60;;;;;;;-0.10;79.26;100835.41;4992480;28;20469;-76
2021/03/25 04:24:18;;;;;;;9.40;5.47;;;;;;;-0.25;80.12;100831.53;4975802;28;20153;-74
2021/03/25 04:26:50;;;;;;;8.07;5.10;;;;;;;-0.25;79.87;100832.44;4976350;28;20030;-74
2021/03/25 04:29:27;;;;;;;8.17;5.60;;;;;;;-0.07;79.69;100834.78;4979202;28;20097;-77
2021/03/25 04:31:53;;;;;;;8.17;5.50;;;;;;;-0.03;79.34;100835.16;4976127;28;20057;-73
2021/03/25 04:34:19;;;;;;;10.97;6.60;;;;;;;-0.01;79.37;100836.16;4975998;28;20484;-74
2021/03/25 04:36:46;;;;;;;13.10;5.77;;;;;;;-0.03;78.79;100844.41;4992116;28;20041;-76
2021/03/25 04:39:16;;;;;;;10.80;6.03;;;;;;;-0.14;78.72;100835.00;4976045;28;20061;-74
2021/03/25 04:41:44;;;;;;;10.85;5.50;;;;;;;-0.45;78.46;100784.16;4976023;28;20081;-74
2021/03/25 04:44:53;;;;;;;10.30;5.63;;;;;;;-0.11;78.28;100855.56;4991988;28;20455;-77
2021/03/25 04:47:27;;;;;;;9.17;5.23;;;;;;;-0.15;78.79;100859.47;4975487;28;20030;-78
2021/03/25 04:50:03;;;;;;;8.70;5.20;;;;;;;-0.57;79.29;100860.09;4992199;28;20566;-74
2021/03/25 04:52:32;;;;;;;8.37;5.17;;;;;;;-0.69;80.14;100857.34;4996562;28;20043;-74
2021/03/25 04:55:14;;;;;;;8.18;5.50;;;;;;;-0.60;80.39;100858.16;5052392;28;20100;-75
2021/03/25 04:57:59;;;;;;;10.90;6.00;;;;;;;-0.53;80.07;100864.66;5052270;28;20474;-75
2021/03/25 05:00:40;;;;;;;15.23;7.30;;;;;;;-0.44;80.26;100874.72;5053335;28;20074;-74
2021/03/25 05:03:10;;;;;;;17.40;9.33;;;;;;;-0.36;79.62;100873.75;5051819;28;20041;-77
2021/03/25 05:05:35;;;;;;;;;;;;;;;-0.29;79.55;100872.63;5052677;28;20082;-75
2021/03/25 05:08:11;;;;;;;11.07;6.83;;;;;;;-0.38;79.51;100880.34;5053433;28;20003;-75
2021/03/25 05:10:44;;;;;;;9.07;5.90;;;;;;;-0.36;78.98;100881.38;5053282;28;20167;-75
2021/03/25 05:13:34;;;;;;;9.57;5.80;;;;;;;-0.46;79.67;100878.75;5053059;28;20021;-75
2021/03/25 05:16:37;;;;;;;9.20;5.37;;;;;;;-0.53;80.08;100882.41;4975181;28;20038;-74
2021/03/25 05:19:18;;;;;;;10.00;5.13;;;;;;;-0.56;80.79;100880.50;4991195;28;20058;-74
2021/03/25 05:21:49;;;;;;;10.93;6.27;;;;;;;-0.50;80.14;100881.03;4974772;28;20035;-80
2021/03/25 05:24:23;;;;;;;10.17;6.00;;;;;;;-0.36;79.58;100883.91;4989414;28;20034;-76
2021/03/25 05:27:16;;;;;;;13.37;6.47;;;;;;;-0.48;79.96;100867.63;4991086;28;20035;-75
2021/03/25 05:29:44;;;;;;;11.20;7.13;;;;;;;-0.29;80.09;100886.19;4944257;29;20039;-77
2021/03/25 05:32:14;;;;;;;12.10;6.43;;;;;;;-0.10;80.82;100886.16;4950565;29;20058;-74
2021/03/25 05:34:41;;;;;;;12.23;6.50;;;;;;;-0.08;80.04;100876.13;4951249;29;20043;-76
2021/03/25 05:37:07;;;;;;;13.50;7.37;;;;;;;0.18;80.33;100902.88;4935187;29;20122;-76
2021/03/25 05:39:34;;;;;;;8.70;5.47;;;;;;;0.48;78.87;100896.94;4934961;29;20035;-76
2021/03/25 05:42:16;;;;;;;10.10;6.20;;;;;;;0.82;78.44;100898.88;4935763;29;20039;-76
2021/03/25 05:45:13;;;;;;;7.73;5.07;;;;;;;1.01;76.87;100894.56;4935026;29;20035;-76
2021/03/25 05:47:55;;;;;;;10.50;6.00;;;;;;;1.09;76.61;100897.72;4951550;29;20046;-74
2021/03/25 05:50:35;;;;;;;8.50;5.20;;;;;;;1.14;75.62;100898.97;4934911;29;20050;-76
2021/03/25 05:53:13;;;;;;;7.93;5.50;;;;;;;1.13;75.67;100900.66;4966676;28;20042;-74
2021/03/25 05:56:16;;;;;;;10.27;5.90;;;;;;;0.89;77.08;100914.75;4985179;28;20436;-76
2021/03/25 05:58:47;;;;;;;9.30;5.73;;;;;;;0.84;76.51;100916.03;4973770;28;20080;-77
2021/03/25 06:01:12;;;;;;;9.10;5.70;;;;;;;0.87;77.51;100915.38;4971815;28;20115;-78
2021/03/25 06:03:45;;;;;;;9.13;5.83;;;;;;;0.96;76.15;100919.59;4981632;28;20085;-78
2021/03/25 06:06:39;;;;;;;9.57;6.60;;;;;;;0.63;77.08;100866.84;4983590;28;20047;-78
2021/03/25 06:09:36;;;;;;;11.63;6.63;;;;;;;0.71;77.22;100896.34;4924612;29;20130;-76
2021/03/25 06:12:16;;;;;;;10.13;6.50;;;;;;;0.89;77.11;100924.91;4929183;29;20487;-77
2021/03/25 06:15:20;;;;;;;9.82;6.18;;;;;;;0.93;77.16;100931.16;4930454;29;20036;-81
2021/03/25 06:18:08;;;;;;;8.30;5.97;;;;;;;0.98;77.58;100923.91;4873933;29;20095;-78
2021/03/25 06:20:53;;;;;;;10.50;6.90;;;;;;;1.07;75.48;100938.28;4873686;29;20049;-77
2021/03/25 06:23:33;;;;;;;9.63;5.93;;;;;;;1.17;73.55;100923.75;4873715;29;20052;-77
2021/03/25 06:26:43;;;;;;;8.43;4.47;;;;;;;1.31;73.39;100935.97;4876689;29;20081;-77
2021/03/25 06:29:41;;;;;;;9.83;5.70;;;;;;;1.42;73.93;100932.63;4910684;29;20044;-79
2021/03/25 06:32:21;;;;;;;5.90;3.80;;;;;;;1.51;72.42;100941.75;4840907;29;20572;-76
2021/03/25 06:34:54;;;;;;;6.93;4.20;;;;;;;1.53;72.59;100942.78;4839922;29;20109;-78
2021/03/25 06:37:27;;;;;;;7.43;4.50;;;;;;;1.33;72.64;100920.81;4840741;29;20037;-77
2021/03/25 06:39:55;;;;;;;6.37;4.40;;;;;;;1.52;71.44;100946.09;4840256;29;20500;-77
2021/03/25 06:42:28;;;;;;;5.67;3.80;;;;;;;1.49;71.90;100943.31;4839373;29;20045;-78
2021/03/25 06:45:00;;;;;;;6.20;3.83;;;;;;;1.65;72.07;100946.31;4855857;29;20534;-77
2021/03/25 06:47:43;;;;;;;4.93;3.70;;;;;;;1.65;71.22;100943.78;4896109;29;20057;-78
2021/03/25 06:50:10;;;;;;;5.30;3.50;;;;;;;1.33;70.66;100864.88;4911761;29;20086;-77
2021/03/25 06:52:37;;;;;;;5.03;2.40;;;;;;;1.77;69.47;100947.31;4895447;29;20028;-78
2021/03/25 06:55:28;;;;;;;4.80;3.33;;;;;;;1.85;69.66;100941.94;4941908;28;20416;-79
2021/03/25 06:58:08;;;;;;;4.70;2.50;;;;;;;1.70;69.44;100939.94;4951826;28;20030;-79
2021/03/25 07:00:39;;;;;;;5.43;3.05;;;;;;;1.86;69.58;100924.22;4950003;28;20031;-78
2021/03/25 07:03:07;;;;;;;4.73;3.20;;;;;;;2.10;69.76;100932.91;4950778;28;20058;-79
2021/03/25 07:05:34;;;;;;;4.70;3.10;;;;;;;2.18;69.44;100942.81;4968339;28;20046;-78
2021/03/25 07:08:20;;;;;;;3.93;2.50;;;;;;;2.25;68.64;100940.84;4981258;28;20036;-78
2021/03/25 07:10:58;;;;;;;3.83;2.60;;;;;;;2.46;67.71;100939.88;5048134;28;20025;-78
2021/03/25 07:13:38;;;;;;;3.70;2.60;;;;;;;2.68;66.48;100948.38;5048117;28;20025;-78
2021/03/25 07:16:08;;;;;;;5.27;3.23;;;;;;;2.58;66.38;100922.97;5048846;28;20052;-80
2021/03/25 07:18:50;;;;;;;;;;;;;;;2.66;67.73;100944.81;5049488;28;20426;-78
2021/03/25 07:21:32;;;;;;;5.43;3.23;;;;;;;2.53;67.81;100950.66;5045876;28;20015;-78
2021/03/25 07:24:01;;;;;;;5.70;3.30;;;;;;;2.72;68.81;100945.28;5046441;28;20033;-78
2021/03/25 07:26:30;;;;;;;4.10;2.37;;;;;;;1.44;66.73;100735.19;5047917;28;20024;-79
2021/03/25 07:29:09;;;;;;;3.55;2.30;;;;;;;2.74;67.07;100935.19;5053103;28;20017;-78
2021/03/25 07:31:41;;;;;;;4.18;2.65;;;;;;;2.82;67.11;100953.66;5051657;28;20025;-80
2021/03/25 07:34:08;;;;;;;5.47;3.10;;;;;;;2.79;67.77;100930.44;5051360;28;20027;-80
2021/03/25 07:36:53;;;;;;;6.03;3.50;;;;;;;2.78;68.35;100952.53;5051821;28;20029;-79
2021/03/25 07:39:26;;;;;;;5.60;2.90;;;;;;;2.51;68.57;100951.31;5050424;28;20036;-79
2021/03/25 07:41:55;;;;;;;5.03;2.93;;;;;;;2.66;67.34;100970.31;5051769;28;20052;-80
2021/03/25 07:44:33;;;;;;;5.83;3.30;;;;;;;2.60;68.46;100974.94;5050175;28;20127;-80
2021/03/25 07:47:02;;;;;;;5.10;2.87;;;;;;;2.55;69.11;100966.03;5050782;28;20128;-77
2021/03/25 07:49:31;;;;;;;4.95;3.38;;;;;;;2.63;68.56;100977.72;5050305;28;20041;-78
2021/03/25 07:52:05;;;;;;;5.00;2.88;;;;;;;2.43;68.38;100938.84;5034874;28;20179;-78
2021/03/25 07:54:39;;;;;;;5.87;3.87;;;;;;;2.43;68.94;100946.50;4981268;28;20825;-78
2021/03/25 07:57:16;;;;;;;5.33;3.00;;;;;;;2.59;68.42;100978.25;4974036;28;20129;-78
2021/03/25 07:59:51;;;;;;;4.93;2.90;;;;;;;2.69;68.47;100970.56;4974487;28;20519;-79
2021/03/25 08:02:37;;;;;;;4.67;3.27;;;;;;;2.42;68.78;100921.78;4990646;28;20503;-78
2021/03/25 08:05:23;;;;;;;4.13;2.60;;;;;;;2.88;67.90;100983.03;4991085;28;20054;-78
2021/03/25 08:07:52;;;;;;;5.30;3.20;;;;;;;2.84;68.51;100998.88;4992114;28;20092;-79
2021/03/25 08:10:25;;;;;;;7.65;3.50;;;;;;;2.94;69.36;100994.47;4990890;28;20038;-79
2021/03/25 08:13:00;;;;;;;5.97;3.87;;;;;;;2.75;69.28;100955.72;4974683;28;20041;-79
2021/03/25 08:15:39;;;;;;;6.87;4.13;;;;;;;3.10;69.62;100983.78;5001883;28;20049;-79
2021/03/25 08:18:08;;;;;;;;;;;;;;;3.18;66.85;100975.91;5011814;28;20037;-79
2021/03/25 08:20:49;;;;;;;9.93;5.23;;;;;;;3.04;66.67;100961.22;4990321;28;20392;-79
2021/03/25 08:23:20;;;;;;;6.03;3.70;;;;;;;3.34;66.40;100983.06;4968765;28;20026;-78
2021/03/25 08:25:49;;;;;;;8.63;5.80;;;;;;;3.46;65.67;100975.41;4991440;28;20033;-80
2021/03/25 08:28:32;;;;;;;5.40;3.33;;;;;;;3.59;66.23;100979.75;4990796;28;20034;-80
2021/03/25 08:31:14;;;;;;;6.70;3.80;;;;;;;3.29;64.98;100923.13;4977132;28;20038;-81
2021/03/25 08:33:45;;;;;;;7.20;5.10;;;;;;;3.41;65.30;100935.91;4974268;28;20030;-82
2021/03/25 08:36:42;;;;;;;8.33;4.73;;;;;;;3.82;65.02;100983.97;4974127;28;20034;-83
2021/03/25 08:39:13;;;;;;;6.13;3.90;;;;;;;3.84;62.66;100990.09;4935872;29;20061;-82
2021/03/25 08:42:06;;;;;;;6.07;4.27;;;;;;;3.68;64.53;100975.31;4935749;29;20155;-82
2021/03/25 08:44:52;;;;;;;8.17;4.40;;;;;;;3.70;61.78;100968.66;4952209;29;20062;-82
2021/03/25 08:47:48;;;;;;;7.37;4.17;;;;;;;3.84;62.04;100986.66;4935697;29;20039;-83
2021/03/25 08:50:49;;;;;;;8.43;4.90;;;;;;;3.73;57.84;100980.75;4951815;29;20055;-82
2021/03/25 08:53:38;;;;;;;6.40;4.40;;;;;;;3.68;59.43;100977.00;4897846;29;20060;-81
2021/03/25 08:56:38;;;;;;;9.27;5.20;;;;;;;3.64;59.69;100980.06;4914203;29;21655;-81
2021/03/25 08:59:15;;;;;;;8.33;4.80;;;;;;;3.73;60.46;100978.22;4905810;29;20043;-81
2021/03/25 09:01:49;;;;;;;11.47;7.13;;;;;;;3.78;60.98;100986.22;4917437;29;20569;-81
2021/03/25 09:04:17;;;;;;;6.97;4.67;;;;;;;3.57;60.91;100937.91;4931148;29;20131;-83
2021/03/25 09:06:47;;;;;;;10.00;5.53;;;;;;;3.85;61.45;100983.31;4932588;29;20630;-81
2021/03/25 09:09:16;;;;;;;7.97;5.10;;;;;;;3.98;61.49;100985.09;4932865;29;20071;-81
2021/03/25 09:11:42;;;;;;;7.77;5.07;;;;;;;3.96;60.73;100974.78;4916547;29;20043;-81
2021/03/25 09:14:19;;;;;;;8.77;6.03;;;;;;;3.79;62.39;100949.66;4915739;29;20035;-82
2021/03/25 09:16:45;;;;;;;9.27;5.47;;;;;;;3.90;61.60;100959.00;4972160;28;20052;-78
2021/03/25 09:19:26;;;;;;;6.77;4.67;;;;;;;3.89;59.43;100975.09;4974588;28;20038;-81
2021/03/25 09:21:55;;;;;;;8.37;5.10;;;;;;;3.98;59.70;100985.09;4972697;28;20065;-82
2021/03/25 09:24:20;;;;;;;12.68;7.07;;;;;;;4.16;61.22;100990.63;4973571;28;20076;-81
2021/03/25 09:26:52;;;;;;;20.50;10.35;;;;;;;4.13;57.38;100969.97;4988895;28;20030;-81
2021/03/25 09:29:21;;;;;;;18.95;16.40;;;;;;;4.31;59.09;100983.13;4985789;28;20045;-80
2021/03/25 09:31:56;;;;;;;7.15;5.32;;;;;;;4.34;59.20;100984.25;5051158;28;21202;-81
2021/03/25 09:34:24;;;;;;;8.60;6.22;;;;;;;3.98;58.65;100917.00;5050811;28;21385;-80
2021/03/25 09:37:12;;;;;;;6.80;4.50;;;;;;;4.41;58.34;100979.56;5050513;28;20079;-80
2021/03/25 09:39:38;;;;;;;7.50;4.50;;;;;;;4.61;55.76;100951.16;5050266;28;20481;-81
2021/03/25 09:42:24;;;;;;;9.35;4.32;;;;;;;4.68;58.46;100983.16;5051483;28;20102;-80
2021/03/25 09:44:50;;;;;;;7.00;4.85;;;;;;;4.86;56.88;100933.25;5051817;28;20033;-81
2021/03/25 09:47:28;;;;;;;8.05;5.65;;;;;;;5.41;56.96;100970.97;5065658;28;20453;-80
2021/03/25 09:50:02;;;;;;;6.90;5.00;;;;;;;5.59;55.34;100971.28;5062344;28;20052;-80
2021/03/25 09:52:32;;;;;;;6.63;4.80;;;;;;;5.74;56.91;100955.16;5049048;28;20064;-81
2021/03/25 09:54:57;;;;;;;8.13;5.35;;;;;;;5.94;55.72;100966.66;5042429;28;20032;-81
2021/03/25 09:57:29;;;;;;;7.65;5.35;;;;;;;6.14;57.89;100965.38;5045730;28;20036;-79
2021/03/25 09:59:56;;;;;;;6.55;4.28;;;;;;;5.72;54.84;100956.72;5049927;28;20029;-81
2021/03/25 10:05:24;;;;;;;7.13;4.53;;;;;;;5.36;54.10;100949.31;5048116;28;20049;-82
2021/03/25 10:07:55;;;;;;;7.05;4.40;;;;;;;5.30;55.83;100960.03;5048993;28;20036;-80
2021/03/25 10:11:07;;;;;;;6.45;4.38;;;;;;;5.15;55.28;100952.22;5048848;28;20025;-81
2021/03/25 10:13:43;;;;;;;6.75;4.50;;;;;;;5.44;55.25;100960.06;4967709;28;20050;-82
2021/03/25 10:16:34;;;;;;;7.55;4.75;;;;;;;5.73;56.92;100954.28;4929388;29;20039;-81
2021/03/25 10:19:05;;;;;;;6.82;4.53;;;;;;;5.74;53.52;100962.81;4914751;29;20044;-80
2021/03/25 10:21:57;;;;;;;8.18;5.22;;;;;;;5.61;54.31;100963.72;4917335;29;20036;-78
2021/03/25 10:24:30;;;;;;;6.53;4.25;;;;;;;5.51;53.54;100959.66;4914067;29;20036;-78
2021/03/25 10:27:19;;;;;;;7.05;4.40;;;;;;;5.70;52.92;100956.63;4931952;29;20028;-79
2021/03/25 10:29:46;;;;;;;8.00;4.72;;;;;;;5.55;54.30;100948.81;4921013;29;20094;-80
2021/03/25 10:32:19;;;;;;;9.10;4.97;;;;;;;5.33;53.63;100938.84;4915896;29;20059;-79
2021/03/25 10:34:48;;;;;;;5.78;3.95;;;;;;;5.51;52.56;100957.09;4923837;29;20031;-79
2021/03/25 10:37:33;;;;;;;10.57;8.90;;;;;;;5.53;52.11;100947.84;4926200;29;20039;-80
2021/03/25 10:40:03;;;;;;;9.05;7.60;;;;;;;5.56;53.83;100953.16;4928564;29;20043;-82
2021/03/25 10:42:39;;;;;;;13.25;9.35;;;;;;;5.66;53.04;100949.53;4919023;29;20055;-81
2021/03/25 10:45:22;;;;;;;7.10;4.82;;;;;;;5.84;54.93;100962.63;4912760;29;20521;-79
2021/03/25 10:47:50;;;;;;;7.35;3.92;;;;;;;5.68;54.14;100947.94;4962783;28;20065;-81
2021/03/25 10:50:23;;;;;;;6.30;4.75;;;;;;;5.73;54.78;100956.84;4979408;28;20049;-81
2021/03/25 10:52:49;;;;;;;10.10;5.63;;;;;;;6.03;53.37;100951.00;5007512;28;20161;-80
2021/03/25 10:55:40;;;;;;;6.88;4.85;;;;;;;6.40;55.72;100940.47;4999143;28;20046;-81
2021/03/25 10:58:14;;;;;;;7.25;4.90;;;;;;;6.44;52.59;100960.38;5001570;28;20049;-82
2021/03/25 11:00:39;;;;;;;7.55;5.35;;;;;;;6.66;52.54;100961.72;4988806;28;20109;-80
2021/03/25 11:03:18;;;;;;;7.28;5.13;;;;;;;6.36;53.41;100952.22;4989108;28;20132;-82
2021/03/25 11:05:55;;;;;;;7.68;5.63;;;;;;;6.31;54.02;100958.75;4991722;28;20558;-80
2021/03/25 11:08:47;;;;;;;7.20;5.07;;;;;;;6.07;53.04;100953.88;5007807;28;20451;-80
2021/03/25 11:11:20;;;;;;;7.50;5.10;;;;;;;6.11;52.61;100955.81;4914610;29;20423;-78
2021/03/25 11:14:02;;;;;;;8.50;4.50;;;;;;;6.39;53.30;100949.88;4927963;29;20046;-80
2021/03/25 11:16:29;;;;;;;7.03;4.40;;;;;;;6.63;52.03;100936.75;4930201;29;20114;-81
2021/03/25 11:19:08;;;;;;;6.88;4.78;;;;;;;6.56;53.02;100927.78;4931313;29;20043;-80
2021/03/25 11:21:39;;;;;;;8.48;5.65;;;;;;;6.27;51.57;100919.22;4930728;29;20048;-82
2021/03/25 11:24:26;;;;;;;8.38;5.82;;;;;;;6.24;52.44;100915.56;4931045;29;20024;-81
2021/03/25 11:27:06;;;;;;;7.55;5.05;;;;;;;6.12;53.32;100867.00;4872478;29;20049;-80
2021/03/25 11:29:36;;;;;;;7.93;5.50;;;;;;;6.83;53.34;100912.28;4856248;29;20038;-81
2021/03/25 11:32:08;;;;;;;6.45;4.50;;;;;;;6.63;53.01;100939.34;4856024;29;20061;-80
2021/03/25 11:34:33;;;;;;;7.72;4.88;;;;;;;6.43;51.55;100945.78;4859212;29;20534;-80
2021/03/25 11:37:00;;;;;;;6.95;4.85;;;;;;;6.27;52.07;100932.03;4859098;29;20041;-82
2021/03/25 11:39:31;;;;;;;6.78;4.95;;;;;;;6.41;53.58;100932.88;4874858;29;20052;-79
2021/03/25 11:42:00;;;;;;;9.55;5.65;;;;;;;6.85;51.36;100941.47;4874784;29;20064;-81
2021/03/25 11:44:40;;;;;;;10.45;7.30;;;;;;;6.94;52.50;100942.03;4874810;29;20037;-80
2021/03/25 11:47:33;;;;;;;8.80;6.50;;;;;;;7.01;51.88;100933.00;4879698;29;20037;-81
2021/03/25 11:49:59;;;;;;;13.82;8.55;;;;;;;6.91;52.59;100875.09;4896588;29;20134;-83
2021/03/25 11:52:24;;;;;;;12.05;10.77;;;;;;;7.25;49.19;100914.69;4896665;29;20815;-81
2021/03/25 11:55:00;;;;;;;7.03;5.07;;;;;;;7.18;50.30;100913.47;4896528;29;20044;-81
2021/03/25 11:57:35;;;;;;;10.77;5.57;;;;;;;7.64;49.59;100927.13;4896334;29;20044;-81
2021/03/25 12:00:09;;;;;;;7.47;5.18;;;;;;;7.43;49.65;100923.44;4907185;29;20047;-81
2021/03/25 12:02:35;;;;;;;7.18;5.00;;;;;;;7.17;51.08;100926.22;4969332;28;20066;-81
2021/03/25 12:05:20;;;;;;;9.02;5.30;;;;;;;7.28;51.67;100928.59;5043650;28;20060;-81
2021/03/25 12:07:46;;;;;;;8.02;6.47;;;;;;;7.27;50.29;100937.09;5031344;28;20503;-81
2021/03/25 12:10:15;;;;;;;8.02;5.32;;;;;;;7.36;49.54;100923.00;5043500;28;20079;-84